Time;durP1;ratioP1;P1;durP2;ratioP2;P2;SDS_P1;SDS_P2;PMS_P1;PMS_P2;Temp;Humidity;BMP_temperature;BMP_pressure;BME280_temperature;BME280_humidity;BME280_pressure;Samples;Min_cycle;Max_cycle;Signal;HPM_P1;HPM_P2
2021/07/20 00:00:52;;;;;;;7.47;6.03;;;;;;;16.40;67.99;101222.38;5034255;28;20210;-80
2021/07/20 00:03:18;;;;;;;11.50;6.77;;;;;;;16.41;68.02;101232.16;5039534;28;20204;-78
2021/07/20 00:05:46;;;;;;;10.10;7.10;;;;;;;16.41;68.03;101229.47;5035920;28;20691;-79
2021/07/20 00:08:13;;;;;;;12.17;6.47;;;;;;;16.42;68.07;101233.00;5035171;28;20920;-78
2021/07/20 00:10:43;;;;;;;11.40;6.37;;;;;;;16.42;68.18;101233.88;5043696;28;20202;-78
2021/07/20 00:13:10;;;;;;;14.90;7.33;;;;;;;16.41;68.18;101239.38;5044291;28;20207;-78
2021/07/20 00:15:37;;;;;;;11.50;6.77;;;;;;;16.40;68.28;101230.44;5039023;28;20712;-78
2021/07/20 00:18:08;;;;;;;10.10;6.70;;;;;;;16.40;68.25;101233.13;5052993;28;20210;-79
2021/07/20 00:20:35;;;;;;;14.10;7.10;;;;;;;16.40;68.40;101225.06;5038378;28;20213;-77
2021/07/20 00:23:03;;;;;;;10.03;7.10;;;;;;;16.39;68.35;101227.88;5032719;28;20208;-77
2021/07/20 00:25:29;;;;;;;11.73;6.80;;;;;;;16.36;68.25;101226.28;5040838;28;20235;-77
2021/07/20 00:27:57;;;;;;;10.50;6.83;;;;;;;16.34;68.34;101228.22;5036904;28;20240;-77
2021/07/20 00:30:24;;;;;;;7.57;6.67;;;;;;;16.33;68.41;101230.06;5054382;28;20649;-79
2021/07/20 00:32:50;;;;;;;10.60;6.60;;;;;;;16.31;68.67;101225.78;5041875;28;20198;-78
2021/07/20 00:35:17;;;;;;;12.20;6.40;;;;;;;16.29;68.64;101225.06;5049954;28;20210;-78
2021/07/20 00:37:44;;;;;;;10.20;6.90;;;;;;;16.29;68.57;101230.44;5042783;28;20206;-78
2021/07/20 00:40:15;;;;;;;9.17;6.77;;;;;;;16.30;68.73;101229.47;5050873;28;20203;-77
2021/07/20 00:42:41;;;;;;;9.33;6.67;;;;;;;16.28;68.74;101231.41;5044602;28;20207;-77
2021/07/20 00:45:10;;;;;;;11.80;6.30;;;;;;;16.26;68.54;101236.91;5043056;28;20229;-77
2021/07/20 00:47:38;;;;;;;11.60;6.77;;;;;;;16.25;68.56;101229.81;5046417;28;20218;-77
2021/07/20 00:50:05;;;;;;;9.27;6.90;;;;;;;16.24;68.55;101225.41;5040890;28;20654;-77
2021/07/20 00:52:32;;;;;;;12.00;6.13;;;;;;;16.23;68.84;101225.53;5044014;28;20206;-77
2021/07/20 00:54:59;;;;;;;9.00;6.37;;;;;;;16.21;68.67;101220.28;5048517;28;20203;-76
2021/07/20 00:57:27;;;;;;;10.23;6.60;;;;;;;16.19;68.55;101222.22;5050823;28;20830;-77
2021/07/20 00:59:54;;;;;;;9.43;6.43;;;;;;;16.18;68.66;101225.03;5057000;28;20205;-77
2021/07/20 01:02:21;;;;;;;10.07;6.10;;;;;;;16.17;68.91;101212.56;5042200;28;20202;-77
2021/07/20 01:04:48;;;;;;;8.13;6.40;;;;;;;16.16;68.92;101216.22;5054301;28;20692;-78
2021/07/20 01:07:15;;;;;;;9.10;6.37;;;;;;;16.15;68.83;101219.88;5040469;28;20237;-76
2021/07/20 01:09:43;;;;;;;7.80;6.00;;;;;;;16.14;68.63;101220.84;5048198;28;20229;-77
2021/07/20 01:12:10;;;;;;;9.93;6.93;;;;;;;16.13;68.74;101220.00;5046096;28;20561;-78
2021/07/20 01:14:38;;;;;;;7.07;5.87;;;;;;;16.12;68.97;101220.97;5040774;28;20205;-78
2021/07/20 01:17:05;;;;;;;9.30;6.93;;;;;;;16.13;68.88;101221.81;5052281;28;20329;-79
2021/07/20 01:19:37;;;;;;;9.57;6.10;;;;;;;16.12;69.01;101218.28;5052872;28;20197;-77
2021/07/20 01:22:06;;;;;;;7.67;5.87;;;;;;;16.12;69.37;101218.28;5045324;28;20214;-78
2021/07/20 01:24:34;;;;;;;10.77;5.97;;;;;;;16.11;68.84;101213.06;5034952;28;20575;-77
2021/07/20 01:27:01;;;;;;;10.47;6.37;;;;;;;16.11;68.71;101215.75;5037771;28;20238;-78
2021/07/20 01:29:28;;;;;;;9.93;6.50;;;;;;;16.10;68.80;101211.34;5035938;28;20688;-77
2021/07/20 01:31:55;;;;;;;7.77;5.73;;;;;;;16.10;69.09;101216.72;5047470;28;20214;-77
2021/07/20 01:34:23;;;;;;;8.00;6.10;;;;;;;16.08;68.91;101214.16;5041655;28;20209;-77
2021/07/20 01:36:51;;;;;;;9.33;5.73;;;;;;;16.07;68.93;101206.19;5049641;28;20246;-79
2021/07/20 01:39:18;;;;;;;10.33;6.33;;;;;;;16.06;69.19;101210.72;5043666;28;20214;-78
2021/07/20 01:41:47;;;;;;;7.57;5.90;;;;;;;16.08;69.01;101210.59;5045344;28;20197;-77
2021/07/20 01:44:15;;;;;;;9.50;6.40;;;;;;;16.08;68.95;101207.91;5047161;28;20574;-79
2021/07/20 01:46:42;;;;;;;9.93;5.80;;;;;;;16.08;68.97;101205.22;5043445;28;20226;-78
2021/07/20 01:49:13;;;;;;;7.53;5.60;;;;;;;16.07;68.91;101207.06;5053284;28;20234;-78
2021/07/20 01:51:40;;;;;;;10.47;6.10;;;;;;;16.08;68.91;101215.97;5041906;28;20199;-77
2021/07/20 01:54:08;;;;;;;7.63;5.63;;;;;;;16.06;68.69;101213.41;5041666;28;20214;-77
2021/07/20 01:56:35;;;;;;;8.53;6.20;;;;;;;16.05;68.78;101213.53;5043760;28;20230;-79
2021/07/20 01:59:04;;;;;;;6.00;5.20;;;;;;;16.04;69.03;101212.66;5037090;28;20208;-80
2021/07/20 02:01:35;;;;;;;7.83;5.50;;;;;;;16.04;69.05;101209.97;5043355;28;20566;-77
2021/07/20 02:04:24;;;;;;;9.17;6.00;;;;;;;16.04;69.06;101207.28;5048392;28;20240;-79
2021/07/20 02:09:37;;;;;;;9.60;5.80;;;;;;;16.06;69.08;101212.53;5053824;28;20225;-78
2021/07/20 02:12:12;;;;;;;8.67;5.80;;;;;;;16.07;68.72;101216.94;5047584;28;20213;-79
2021/07/20 02:14:43;;;;;;;8.07;5.90;;;;;;;16.08;68.93;101213.28;5047825;28;20219;-78
2021/07/20 02:17:11;;;;;;;7.27;5.77;;;;;;;16.07;68.64;101217.81;5044569;28;20223;-79
2021/07/20 02:19:43;;;;;;;7.30;5.53;;;;;;;16.08;68.98;101210.59;5040904;28;20201;-78
2021/07/20 02:22:11;;;;;;;7.80;6.20;;;;;;;16.09;68.95;101213.16;5049201;28;20198;-78
2021/07/20 02:24:39;;;;;;;10.37;6.63;;;;;;;16.10;68.78;101209.50;5043957;28;20201;-79
2021/07/20 02:27:08;;;;;;;8.93;5.73;;;;;;;16.10;68.77;101208.66;5038422;28;20230;-78
2021/07/20 02:29:36;;;;;;;8.07;5.70;;;;;;;16.09;68.58;101213.16;5037505;28;20223;-77
2021/07/20 02:32:06;;;;;;;8.13;5.67;;;;;;;16.11;68.71;101207.69;5042447;28;20213;-78
2021/07/20 02:34:37;;;;;;;8.90;6.20;;;;;;;16.12;68.54;101206.72;5043644;28;20209;-78
2021/07/20 02:37:05;;;;;;;7.23;5.33;;;;;;;16.14;68.78;101210.09;5047416;28;20714;-78
2021/07/20 02:39:33;;;;;;;10.70;5.70;;;;;;;16.12;68.97;101199.47;5040698;28;20209;-77
2021/07/20 02:42:01;;;;;;;8.20;5.47;;;;;;;16.13;68.81;101205.69;5042738;28;20211;-77
2021/07/20 02:44:29;;;;;;;8.33;5.60;;;;;;;16.13;68.65;101201.19;5039390;28;20655;-77
2021/07/20 02:46:56;;;;;;;8.13;5.60;;;;;;;16.13;68.73;101206.56;5040558;28;20238;-77
2021/07/20 02:49:24;;;;;;;6.30;5.37;;;;;;;16.14;68.81;101202.03;5044303;28;20229;-78
2021/07/20 02:51:52;;;;;;;7.10;5.57;;;;;;;16.14;68.90;101199.34;5040173;28;20198;-79
2021/07/20 02:54:22;;;;;;;12.77;5.63;;;;;;;16.14;68.51;101202.91;5045377;28;20570;-78
2021/07/20 02:56:50;;;;;;;9.13;5.70;;;;;;;16.13;68.33;101209.25;5044251;28;20256;-79
2021/07/20 02:59:21;;;;;;;10.03;5.47;;;;;;;16.11;68.59;101213.91;5048752;28;20216;-79
2021/07/20 03:01:49;;;;;;;7.27;5.23;;;;;;;16.09;68.76;101223.06;5043961;28;20194;-79
2021/07/20 03:04:15;;;;;;;9.30;5.47;;;;;;;16.06;68.69;101215.22;5046073;28;20214;-79
2021/07/20 03:06:57;;;;;;;6.83;5.17;;;;;;;16.04;68.58;101211.81;5048017;28;20217;-79
2021/07/20 03:09:25;;;;;;;9.53;5.77;;;;;;;16.03;68.94;101218.16;5045973;28;20217;-79
2021/07/20 03:11:56;;;;;;;9.50;5.83;;;;;;;15.98;68.95;101218.50;5037725;28;20234;-78
2021/07/20 03:14:26;;;;;;;7.57;5.67;;;;;;;15.98;68.96;101224.72;5042050;28;20198;-78
2021/07/20 03:16:54;;;;;;;7.00;4.93;;;;;;;15.97;69.05;101223.00;5048461;28;20684;-78
2021/07/20 03:19:24;;;;;;;10.13;5.30;;;;;;;15.94;69.10;101228.63;5041145;28;20222;-77
2021/07/20 03:21:55;;;;;;;6.67;5.03;;;;;;;15.93;69.01;101226.94;5038968;28;20207;-79
2021/07/20 03:24:23;;;;;;;9.97;5.30;;;;;;;15.94;69.18;101227.78;5035538;28;20202;-77
2021/07/20 03:26:51;;;;;;;7.53;5.33;;;;;;;15.94;69.14;101233.16;5040571;28;20233;-79
2021/07/20 03:29:21;;;;;;;9.40;5.70;;;;;;;15.95;69.37;101224.97;5042764;28;20232;-77
2021/07/20 03:31:49;;;;;;;6.70;4.87;;;;;;;15.96;69.24;101229.34;5049495;28;20214;-77
2021/07/20 03:34:17;;;;;;;6.97;5.13;;;;;;;15.97;69.27;101224.84;5034946;28;20212;-78
2021/07/20 03:36:44;;;;;;;8.07;5.27;;;;;;;15.98;69.11;101223.88;5044243;28;20232;-77
2021/07/20 03:39:12;;;;;;;7.97;5.70;;;;;;;15.99;69.36;101217.53;5054430;28;20198;-77
2021/07/20 03:41:40;;;;;;;7.57;5.43;;;;;;;16.01;69.15;101225.47;5051919;28;20216;-80
2021/07/20 03:44:10;;;;;;;10.50;5.50;;;;;;;16.03;69.15;101224.38;5052214;28;20686;-78
2021/07/20 03:46:37;;;;;;;8.83;5.43;;;;;;;16.04;69.27;101222.56;5051906;28;20657;-78
2021/07/20 03:49:04;;;;;;;7.70;5.30;;;;;;;16.04;69.16;101222.56;5035590;28;20237;-78
2021/07/20 03:51:31;;;;;;;7.87;5.10;;;;;;;16.05;69.27;101226.94;5036277;28;20237;-77
2021/07/20 03:54:00;;;;;;;5.00;4.40;;;;;;;16.04;69.27;101226.09;5041341;28;20202;-77
2021/07/20 03:56:29;;;;;;;6.43;4.93;;;;;;;16.04;69.54;101222.56;5042953;28;20233;-78
2021/07/20 03:58:57;;;;;;;6.20;4.97;;;;;;;16.04;69.57;101238.66;5053781;28;20641;-78
2021/07/20 04:01:29;;;;;;;5.67;4.63;;;;;;;16.03;69.34;101236.97;5047579;28;20210;-78
2021/07/20 04:03:57;;;;;;;6.27;5.03;;;;;;;16.04;69.73;101233.28;5043330;28;20259;-78
2021/07/20 04:06:26;;;;;;;8.97;4.93;;;;;;;16.05;69.44;101235.00;5057812;28;20241;-78
2021/07/20 04:08:53;;;;;;;10.73;5.27;;;;;;;16.04;69.51;101227.94;5058441;28;20225;-78
2021/07/20 04:11:22;;;;;;;5.73;4.97;;;;;;;16.03;69.74;101229.75;5047986;28;20241;-78
2021/07/20 04:13:52;;;;;;;6.80;5.73;;;;;;;16.02;69.77;101222.66;5056853;28;20212;-79
2021/07/20 04:16:19;;;;;;;9.60;5.40;;;;;;;16.01;69.83;101230.84;5049673;28;20381;-79
2021/07/20 04:18:46;;;;;;;7.87;4.93;;;;;;;16.01;70.05;101234.38;5038077;28;20572;-77
2021/07/20 04:21:13;;;;;;;8.00;5.33;;;;;;;16.02;70.11;101240.63;5046847;28;20646;-79
2021/07/20 04:23:39;;;;;;;8.73;5.40;;;;;;;16.01;70.10;101241.59;5049600;28;20201;-78
2021/07/20 04:26:08;;;;;;;7.50;5.03;;;;;;;16.00;70.24;101240.72;5052065;28;20237;-78
2021/07/20 04:28:35;;;;;;;7.33;5.17;;;;;;;16.00;70.16;101242.56;5045614;28;20582;-80
2021/07/20 04:31:05;;;;;;;6.20;4.87;;;;;;;16.01;70.22;101244.28;5046274;28;20205;-80
2021/07/20 04:33:34;;;;;;;6.77;5.27;;;;;;;16.01;70.25;101241.59;5047036;28;20606;-78
2021/07/20 04:36:01;;;;;;;7.50;5.30;;;;;;;16.02;70.21;101246.00;5045542;28;20229;-78
2021/07/20 04:38:32;;;;;;;7.00;4.47;;;;;;;16.04;70.27;101244.03;5045980;28;20204;-78
2021/07/20 04:40:59;;;;;;;6.73;4.70;;;;;;;16.04;70.09;101244.91;5043558;28;20519;-80
2021/07/20 04:43:26;;;;;;;6.60;4.50;;;;;;;16.04;70.27;101244.91;5046813;28;20730;-80
2021/07/20 04:45:54;;;;;;;8.43;5.20;;;;;;;16.06;70.31;101236.72;5050354;28;20233;-80
2021/07/20 04:48:23;;;;;;;5.50;4.43;;;;;;;16.06;70.50;101250.16;5050807;28;20213;-78
2021/07/20 04:50:52;;;;;;;7.03;4.43;;;;;;;16.07;70.16;101250.06;5053021;28;20233;-79
2021/07/20 04:53:20;;;;;;;7.67;4.43;;;;;;;16.06;70.16;101248.34;5047582;28;20297;-79
2021/07/20 04:55:49;;;;;;;6.50;5.10;;;;;;;16.06;70.00;101253.72;5042171;28;20226;-79
2021/07/20 04:58:16;;;;;;;6.63;4.43;;;;;;;16.06;70.34;101247.47;5046457;28;20578;-78
2021/07/20 05:00:44;;;;;;;7.67;4.37;;;;;;;16.07;70.32;101251.88;5049285;28;20201;-79
2021/07/20 05:03:11;;;;;;;6.93;4.20;;;;;;;16.06;70.05;101250.16;5046196;28;20197;-78
2021/07/20 05:05:42;;;;;;;6.83;4.63;;;;;;;16.05;70.34;101256.50;5041134;28;20236;-79
2021/07/20 05:08:13;;;;;;;8.97;4.80;;;;;;;16.04;70.50;101244.03;5042569;28;20210;-77
2021/07/20 05:10:44;;;;;;;8.93;4.50;;;;;;;16.04;70.28;101244.91;5045266;28;20237;-79
2021/07/20 05:13:16;;;;;;;7.53;4.33;;;;;;;16.04;70.28;101246.72;5043406;28;20296;-80
2021/07/20 05:15:43;;;;;;;6.53;4.37;;;;;;;16.04;70.31;101241.34;5041182;28;20226;-79
2021/07/20 05:18:13;;;;;;;6.80;4.30;;;;;;;16.05;70.13;101245.75;5044485;28;20606;-79
2021/07/20 05:20:43;;;;;;;11.60;4.73;;;;;;;16.04;70.18;101252.97;5048961;28;20724;-78
2021/07/20 05:23:13;;;;;;;7.33;5.00;;;;;;;16.06;70.39;101252.84;5040323;28;20299;-79
2021/07/20 05:25:41;;;;;;;8.03;4.53;;;;;;;16.08;70.13;101257.13;5043376;28;20283;-79
2021/07/20 05:28:11;;;;;;;6.97;4.40;;;;;;;16.10;69.96;101263.25;5042379;28;20198;-79
2021/07/20 05:30:37;;;;;;;9.23;4.60;;;;;;;16.11;70.20;101261.44;5045253;28;20247;-78
2021/07/20 05:33:04;;;;;;;6.57;4.67;;;;;;;16.13;70.06;101259.44;5042576;28;20217;-78
2021/07/20 05:35:31;;;;;;;7.13;4.50;;;;;;;16.13;69.86;101257.63;5046030;28;20368;-79
2021/07/20 05:37:59;;;;;;;7.03;4.60;;;;;;;16.16;69.94;101261.91;5042973;28;20202;-79
2021/07/20 05:40:29;;;;;;;6.47;4.67;;;;;;;16.18;70.10;101259.97;5039316;28;20206;-78
2021/07/20 05:42:57;;;;;;;7.63;5.27;;;;;;;16.17;70.01;101256.41;5049213;28;20216;-79
2021/07/20 05:45:25;;;;;;;8.13;4.80;;;;;;;16.17;70.28;101253.72;5047001;28;20231;-78
2021/07/20 05:47:52;;;;;;;7.23;4.60;;;;;;;16.17;70.00;101260.94;5041077;28;20290;-79
2021/07/20 05:50:20;;;;;;;6.00;4.60;;;;;;;16.16;69.80;101253.84;5037785;28;20228;-79
2021/07/20 05:52:49;;;;;;;7.53;5.07;;;;;;;16.16;69.96;101254.69;5043314;28;20663;-79
2021/07/20 05:55:19;;;;;;;8.27;5.03;;;;;;;16.17;69.83;101261.78;5045530;28;20284;-78
2021/07/20 05:57:48;;;;;;;8.87;4.83;;;;;;;16.17;69.47;101253.72;5043654;28;20209;-80
2021/07/20 06:00:20;;;;;;;7.60;5.13;;;;;;;16.18;69.37;101251.91;5047977;28;20230;-80
2021/07/20 06:02:47;;;;;;;8.70;5.37;;;;;;;16.20;69.47;101255.31;5041882;28;20576;-77
2021/07/20 06:05:16;;;;;;;7.57;4.97;;;;;;;16.23;69.39;101260.47;5049152;28;20205;-79
2021/07/20 06:07:44;;;;;;;8.87;5.23;;;;;;;16.25;68.94;101258.53;5048152;28;20542;-79
2021/07/20 06:10:14;;;;;;;7.70;4.80;;;;;;;16.24;69.09;101260.34;5046177;28;20694;-79
2021/07/20 06:12:47;;;;;;;7.03;5.30;;;;;;;16.25;68.86;101264.75;5051028;28;20252;-79
2021/07/20 06:15:14;;;;;;;8.00;4.73;;;;;;;16.26;68.72;101271.00;5047662;28;20289;-79
2021/07/20 06:17:42;;;;;;;8.33;5.07;;;;;;;16.26;68.71;101265.63;5046082;28;20285;-80
2021/07/20 06:20:09;;;;;;;8.27;4.90;;;;;;;16.28;68.67;101267.22;5047425;28;20212;-79
2021/07/20 06:22:42;;;;;;;8.53;5.30;;;;;;;16.30;68.70;101267.09;5048445;28;20208;-79
2021/07/20 06:25:10;;;;;;;7.27;5.07;;;;;;;16.32;68.55;101271.34;5047763;28;20205;-79
2021/07/20 06:27:38;;;;;;;9.97;5.30;;;;;;;16.32;68.60;101274.03;5051022;28;20205;-78
2021/07/20 06:30:09;;;;;;;7.97;5.17;;;;;;;16.35;68.63;101281.00;5043825;28;20297;-77
2021/07/20 06:32:39;;;;;;;10.00;5.40;;;;;;;16.39;68.56;101284.31;5047470;28;20212;-77
2021/07/20 06:35:10;;;;;;;8.10;5.23;;;;;;;16.39;68.27;101290.56;5046243;28;20225;-80
2021/07/20 06:37:40;;;;;;;11.20;5.67;;;;;;;16.42;68.42;101281.41;5047697;28;20211;-79
2021/07/20 06:40:13;;;;;;;7.83;4.90;;;;;;;16.46;68.47;101289.13;5040125;28;20213;-80
2021/07/20 06:42:41;;;;;;;7.63;5.07;;;;;;;16.50;68.24;101287.88;5045675;28;20225;-79
2021/07/20 06:45:16;;;;;;;9.00;4.90;;;;;;;16.53;68.03;101289.47;5041168;28;20202;-80
2021/07/20 06:47:43;;;;;;;11.93;5.47;;;;;;;16.54;68.20;101291.19;5045933;28;20562;-79
2021/07/20 06:50:11;;;;;;;9.40;5.10;;;;;;;16.57;68.28;101294.50;5044954;28;20599;-79
2021/07/20 06:52:42;;;;;;;8.40;4.87;;;;;;;16.59;68.10;101289.88;5043300;28;20207;-79
2021/07/20 06:55:09;;;;;;;8.00;5.33;;;;;;;16.62;67.99;101295.00;5044030;28;20205;-79
2021/07/20 06:57:38;;;;;;;8.00;4.60;;;;;;;16.66;67.87;101293.81;5043035;28;20198;-80
2021/07/20 07:00:10;;;;;;;6.87;5.00;;;;;;;16.70;67.93;101307.00;5048081;28;20230;-78
2021/07/20 07:02:41;;;;;;;8.00;5.23;;;;;;;16.74;67.63;101303.13;5038112;28;20297;-79
2021/07/20 07:05:12;;;;;;;7.43;4.93;;;;;;;16.78;67.67;101299.22;5034573;28;20206;-78
2021/07/20 07:07:39;;;;;;;7.97;5.10;;;;;;;16.81;67.52;101310.59;5041507;28;20661;-79
2021/07/20 07:10:09;;;;;;;7.47;4.90;;;;;;;16.86;67.53;101307.50;5044837;28;20569;-78
2021/07/20 07:12:37;;;;;;;7.50;5.40;;;;;;;16.92;67.34;101307.03;5046444;28;20241;-77
2021/07/20 07:15:07;;;;;;;9.43;5.17;;;;;;;16.99;67.25;101302.91;5036761;28;20214;-79
2021/07/20 07:17:36;;;;;;;8.00;4.60;;;;;;;17.05;67.19;101307.75;5046636;28;20614;-78
2021/07/20 07:20:05;;;;;;;6.63;5.90;;;;;;;17.09;66.74;101306.53;5045169;28;20289;-78
2021/07/20 07:22:33;;;;;;;8.17;5.00;;;;;;;17.12;66.53;101300.91;5047982;28;20211;-79
2021/07/20 07:25:00;;;;;;;8.17;5.43;;;;;;;17.17;66.25;101317.56;5040221;28;20217;-79
2021/07/20 07:27:28;;;;;;;8.53;4.73;;;;;;;17.21;66.11;101310.94;5055002;28;20587;-77
2021/07/20 07:29:57;;;;;;;7.63;5.30;;;;;;;17.25;66.16;101312.41;5036517;28;21021;-78
2021/07/20 07:32:24;;;;;;;11.50;5.80;;;;;;;17.31;65.97;101314.63;5052076;28;20207;-78
2021/07/20 07:34:52;;;;;;;10.07;5.80;;;;;;;17.39;65.90;101313.13;5040130;28;20206;-78
2021/07/20 07:37:20;;;;;;;8.57;5.67;;;;;;;17.42;65.33;101307.47;5049379;28;20223;-78
2021/07/20 07:39:48;;;;;;;8.37;5.33;;;;;;;17.42;65.22;101311.03;5047810;28;20206;-78
2021/07/20 07:42:15;;;;;;;10.70;5.17;;;;;;;17.47;65.32;101316.91;5044543;28;20344;-79
2021/07/20 07:44:46;;;;;;;7.43;5.50;;;;;;;17.54;65.12;101317.28;5040904;28;20207;-79
2021/07/20 07:47:14;;;;;;;9.43;5.77;;;;;;;17.62;64.94;101317.47;5042107;28;20237;-80
2021/07/20 07:49:42;;;;;;;10.03;5.33;;;;;;;17.67;64.44;101321.56;5051732;28;20571;-79
2021/07/20 07:52:12;;;;;;;7.97;4.90;;;;;;;17.73;64.34;101325.59;5036922;28;20196;-79
2021/07/20 07:54:39;;;;;;;9.33;4.83;;;;;;;17.81;64.09;101333.88;5041541;28;20200;-79
2021/07/20 07:57:06;;;;;;;6.67;4.50;;;;;;;17.84;63.69;101325.53;5039050;28;20258;-79
2021/07/20 07:59:34;;;;;;;6.10;4.60;;;;;;;17.89;63.56;101325.16;5055024;28;20223;-77
2021/07/20 08:02:03;;;;;;;6.90;5.10;;;;;;;17.98;63.70;101330.63;5047208;28;20203;-78
2021/07/20 08:04:34;;;;;;;15.03;5.33;;;;;;;18.08;63.40;101328.03;5041714;28;20264;-78
2021/07/20 08:07:01;;;;;;;6.43;4.70;;;;;;;18.17;62.76;101321.84;5039432;28;20230;-78
2021/07/20 08:09:32;;;;;;;6.50;4.60;;;;;;;18.18;61.72;101328.97;5044152;28;20700;-77
2021/07/20 08:12:00;;;;;;;5.27;4.07;;;;;;;18.20;61.62;101320.75;5051423;28;20568;-77
2021/07/20 08:14:27;;;;;;;7.67;4.50;;;;;;;18.21;61.41;101326.00;5043845;28;20570;-78
2021/07/20 08:16:59;;;;;;;7.17;4.60;;;;;;;18.22;61.36;101318.78;5038426;28;20697;-77
2021/07/20 08:19:27;;;;;;;7.23;5.10;;;;;;;18.25;61.65;101332.88;5045410;28;20212;-77
2021/07/20 08:21:58;;;;;;;10.00;5.13;;;;;;;18.31;61.70;101339.56;5042841;28;20251;-77
2021/07/20 08:24:25;;;;;;;7.17;4.23;;;;;;;18.35;61.71;101332.91;5040016;28;20193;-79
2021/07/20 08:26:59;;;;;;;7.10;5.10;;;;;;;18.40;61.47;101330.69;5044677;28;20269;-79
2021/07/20 08:29:32;;;;;;;6.27;4.53;;;;;;;18.43;61.03;101322.34;5038237;28;20231;-79
2021/07/20 08:32:03;;;;;;;5.00;4.30;;;;;;;18.45;60.59;101327.63;5041994;28;20221;-78
2021/07/20 08:34:34;;;;;;;10.63;4.70;;;;;;;18.47;60.54;101321.06;5043377;28;20215;-79
2021/07/20 08:37:02;;;;;;;7.30;4.40;;;;;;;18.50;60.41;101320.81;5041263;28;20229;-78
2021/07/20 08:39:31;;;;;;;10.23;4.27;;;;;;;18.54;60.02;101324.97;5043627;28;20805;-77
2021/07/20 08:42:13;;;;;;;5.43;3.97;;;;;;;18.55;59.85;101321.28;5039143;28;20208;-76
2021/07/20 08:44:59;;;;;;;8.23;3.90;;;;;;;18.59;59.64;101330.00;5042480;28;20201;-78
2021/07/20 08:47:38;;;;;;;6.13;3.83;;;;;;;18.60;59.05;101324.47;5038153;28;20695;-78
2021/07/20 08:50:19;;;;;;;6.23;3.50;;;;;;;18.59;58.47;101325.47;5040011;28;20209;-78
2021/07/20 08:52:51;;;;;;;5.27;3.37;;;;;;;18.60;58.72;101327.19;5041959;28;20285;-78
2021/07/20 08:55:22;;;;;;;6.07;3.90;;;;;;;18.63;58.49;101324.19;5051196;28;20202;-77
2021/07/20 08:57:56;;;;;;;7.63;3.67;;;;;;;18.68;58.30;101327.34;5050243;28;20657;-78
2021/07/20 09:00:25;;;;;;;5.10;3.77;;;;;;;18.72;58.06;101325.25;5044437;28;20205;-77
2021/07/20 09:03:00;;;;;;;6.00;3.93;;;;;;;18.72;57.27;101326.09;5046098;28;20220;-79
2021/07/20 09:05:31;;;;;;;5.03;3.80;;;;;;;18.74;57.57;101325.97;5042785;28;20241;-77
2021/07/20 09:08:08;;;;;;;4.47;3.10;;;;;;;18.77;57.53;101323.03;5046536;28;20201;-79
2021/07/20 09:10:41;;;;;;;4.83;3.20;;;;;;;18.79;57.31;101326.44;5047810;28;20222;-79
2021/07/20 09:13:13;;;;;;;4.43;3.53;;;;;;;18.82;57.14;101326.16;5046167;28;20194;-77
2021/07/20 09:15:45;;;;;;;5.03;3.30;;;;;;;18.88;57.21;101319.38;5047565;28;20226;-77
2021/07/20 09:18:19;;;;;;;4.60;3.40;;;;;;;18.91;57.02;101325.34;5050116;28;20195;-79
2021/07/20 09:20:47;;;;;;;6.07;4.00;;;;;;;18.92;56.83;101326.22;5045929;28;20198;-79
2021/07/20 09:23:18;;;;;;;3.53;3.23;;;;;;;18.90;56.85;101330.88;5052897;28;20200;-78
2021/07/20 09:25:53;;;;;;;6.57;4.13;;;;;;;18.92;56.85;101331.63;5047183;28;20243;-77
2021/07/20 09:28:28;;;;;;;6.73;3.87;;;;;;;18.93;56.85;101327.94;5046965;28;20213;-78
2021/07/20 09:30:56;;;;;;;6.80;3.63;;;;;;;18.98;56.89;101341.88;5050024;28;20211;-79
2021/07/20 09:33:32;;;;;;;5.73;4.10;;;;;;;19.01;56.85;101334.34;5051569;28;20209;-79
2021/07/20 09:36:01;;;;;;;7.23;3.40;;;;;;;19.06;56.55;101333.94;5048408;28;20239;-78
2021/07/20 09:38:43;;;;;;;6.40;3.80;;;;;;;19.08;56.65;101337.38;5048769;28;20226;-78
2021/07/20 09:41:20;;;;;;;5.17;3.83;;;;;;;19.08;56.57;101340.06;5049287;28;20654;-77
2021/07/20 09:43:54;;;;;;;8.40;3.87;;;;;;;19.11;56.35;101338.94;5046631;28;20194;-78
2021/07/20 09:46:35;;;;;;;5.17;3.37;;;;;;;19.13;56.19;101342.38;5044787;28;20228;-78
2021/07/20 09:49:05;;;;;;;5.00;3.43;;;;;;;19.14;55.22;101338.69;5045750;28;20199;-77
2021/07/20 09:51:55;;;;;;;6.77;3.70;;;;;;;19.12;55.37;101333.41;5041250;28;20608;-78
2021/07/20 09:54:49;;;;;;;5.17;3.27;;;;;;;19.16;55.73;101334.00;5041497;28;20212;-77
2021/07/20 09:57:28;;;;;;;6.63;3.77;;;;;;;19.23;55.60;101337.84;5046239;28;20229;-77
2021/07/20 10:00:04;;;;;;;4.87;3.27;;;;;;;19.30;55.83;101339.03;5042979;28;20205;-77
2021/07/20 10:02:40;;;;;;;6.10;3.47;;;;;;;19.38;55.22;101336.47;5043060;28;20195;-76
2021/07/20 10:05:14;;;;;;;4.50;3.40;;;;;;;19.46;55.16;101330.41;5045444;28;20203;-76
2021/07/20 10:07:43;;;;;;;5.10;3.60;;;;;;;19.52;54.66;101329.91;5045602;28;20213;-77
2021/07/20 10:10:15;;;;;;;5.03;3.80;;;;;;;19.56;54.27;101323.19;5045529;28;20211;-77
2021/07/20 10:13:05;;;;;;;7.43;3.60;;;;;;;19.58;54.33;101338.28;5052722;28;20215;-78
2021/07/20 10:15:55;;;;;;;5.60;3.43;;;;;;;19.59;54.15;101336.44;5039167;28;20247;-78
2021/07/20 10:18:30;;;;;;;4.63;3.73;;;;;;;19.61;54.04;101342.56;5044059;28;20205;-78
2021/07/20 10:21:00;;;;;;;4.87;3.77;;;;;;;19.64;53.90;101334.19;5045745;28;20837;-79
2021/07/20 10:23:32;;;;;;;5.17;3.53;;;;;;;19.66;54.05;101343.00;5044064;28;20288;-78
2021/07/20 10:26:03;;;;;;;5.03;3.00;;;;;;;19.72;53.73;101337.03;5045008;28;20231;-77
2021/07/20 10:28:34;;;;;;;4.67;3.00;;;;;;;19.75;53.58;101334.91;5052128;28;20204;-77
2021/07/20 10:31:08;;;;;;;5.47;3.10;;;;;;;19.80;53.09;101330.94;5047645;28;20232;-78
2021/07/20 10:33:42;;;;;;;5.30;3.10;;;;;;;19.83;52.80;101331.53;5045994;28;20263;-77
2021/07/20 10:36:14;;;;;;;3.37;2.70;;;;;;;19.85;52.21;101329.53;5043219;28;20236;-76
2021/07/20 10:38:45;;;;;;;4.63;2.70;;;;;;;19.82;51.26;101335.22;5044497;28;20200;-77
2021/07/20 10:41:17;;;;;;;6.00;2.87;;;;;;;19.78;51.24;101331.06;5047613;28;20220;-78
2021/07/20 10:43:52;;;;;;;4.50;2.50;;;;;;;19.77;50.74;101329.38;5042096;28;20208;-78
2021/07/20 10:46:23;;;;;;;2.20;1.87;;;;;;;19.73;50.23;101330.63;5049191;28;20297;-78
2021/07/20 10:48:57;;;;;;;2.57;2.20;;;;;;;19.72;50.09;101327.06;5040549;28;20216;-80
2021/07/20 10:51:30;;;;;;;3.43;2.20;;;;;;;19.73;49.66;101328.78;5041468;28;20222;-76
2021/07/20 10:54:03;;;;;;;3.77;2.70;;;;;;;19.77;49.50;101330.22;5041589;28;20859;-79
2021/07/20 10:56:40;;;;;;;2.93;2.30;;;;;;;19.83;49.30;101327.97;5046005;28;20238;-79
2021/07/20 10:59:13;;;;;;;3.50;2.37;;;;;;;19.88;48.99;101329.25;5045550;28;20205;-79
2021/07/20 11:01:55;;;;;;;2.63;2.00;;;;;;;19.91;48.71;101320.84;5044759;28;20196;-79
2021/07/20 11:04:35;;;;;;;3.50;1.80;;;;;;;19.94;48.25;101325.13;5048219;28;20212;-78
2021/07/20 11:07:05;;;;;;;4.10;2.20;;;;;;;20.00;48.00;101321.84;5045182;28;20228;-79
2021/07/20 11:09:32;;;;;;;4.17;2.27;;;;;;;20.06;47.83;101316.72;5040444;28;20654;-78
2021/07/20 11:12:02;;;;;;;3.10;2.30;;;;;;;20.13;47.46;101322.41;5045523;28;20235;-78
2021/07/20 11:14:30;;;;;;;3.80;2.40;;;;;;;20.20;47.11;101323.56;5040703;28;20704;-79
2021/07/20 11:17:00;;;;;;;3.30;2.00;;;;;;;20.26;46.64;101319.41;5049572;28;20229;-78
2021/07/20 11:19:29;;;;;;;3.57;2.17;;;;;;;20.29;46.39;101317.28;5043153;28;20222;-78
2021/07/20 11:21:56;;;;;;;2.83;2.33;;;;;;;20.33;46.33;101316.00;5036997;28;20224;-80
2021/07/20 11:24:24;;;;;;;4.33;2.30;;;;;;;20.39;46.46;101315.47;5042650;28;20217;-78
2021/07/20 11:26:51;;;;;;;2.13;1.93;;;;;;;20.45;46.69;101314.88;5043565;28;20244;-78
2021/07/20 11:29:18;;;;;;;3.40;2.03;;;;;;;20.55;46.19;101320.28;5050078;28;20209;-78
2021/07/20 11:31:50;;;;;;;4.30;2.47;;;;;;;20.65;46.57;101318.41;5044705;28;20229;-78
2021/07/20 11:34:23;;;;;;;3.03;2.53;;;;;;;20.74;46.15;101313.97;5044225;28;20199;-80
2021/07/20 11:36:54;;;;;;;3.07;2.37;;;;;;;20.83;46.48;101310.38;5043913;28;20632;-80
2021/07/20 11:39:23;;;;;;;3.50;2.23;;;;;;;20.93;46.40;101315.78;5040044;28;20212;-78